sensor_id;sensor_type;location;lat;lon;timestamp;P1;durP1;ratioP1;P2;durP2;ratioP2
6372;SDS011;3219;51.362;7.074;2023-02-28T00:01:06;8.73;;;5.40;;
6372;SDS011;3219;51.362;7.074;2023-02-28T00:03:34;9.52;;;6.43;;
6372;SDS011;3219;51.362;7.074;2023-02-28T00:06:02;10.43;;;6.40;;
6372;SDS011;3219;51.362;7.074;2023-02-28T00:08:29;12.05;;;6.22;;
6372;SDS011;3219;51.362;7.074;2023-02-28T00:10:56;11.98;;;5.55;;
6372;SDS011;3219;51.362;7.074;2023-02-28T00:13:26;8.48;;;5.78;;
6372;SDS011;3219;51.362;7.074;2023-02-28T00:16:00;11.13;;;5.68;;
6372;SDS011;3219;51.362;7.074;2023-02-28T00:18:28;11.10;;;5.68;;
6372;SDS011;3219;51.362;7.074;2023-02-28T00:20:56;8.70;;;5.80;;
6372;SDS011;3219;51.362;7.074;2023-02-28T00:23:23;8.80;;;5.80;;
6372;SDS011;3219;51.362;7.074;2023-02-28T00:25:50;7.18;;;5.20;;
6372;SDS011;3219;51.362;7.074;2023-02-28T00:28:17;10.05;;;6.10;;
6372;SDS011;3219;51.362;7.074;2023-02-28T00:30:44;9.98;;;5.38;;
6372;SDS011;3219;51.362;7.074;2023-02-28T00:33:11;8.32;;;5.75;;
6372;SDS011;3219;51.362;7.074;2023-02-28T00:35:38;7.50;;;5.32;;
6372;SDS011;3219;51.362;7.074;2023-02-28T00:38:06;9.10;;;5.75;;
6372;SDS011;3219;51.362;7.074;2023-02-28T00:40:33;7.90;;;5.88;;
6372;SDS011;3219;51.362;7.074;2023-02-28T00:43:00;10.30;;;6.60;;
6372;SDS011;3219;51.362;7.074;2023-02-28T00:45:26;10.15;;;6.18;;
6372;SDS011;3219;51.362;7.074;2023-02-28T00:47:53;8.52;;;6.30;;
6372;SDS011;3219;51.362;7.074;2023-02-28T00:50:20;11.73;;;6.50;;
6372;SDS011;3219;51.362;7.074;2023-02-28T00:52:47;9.05;;;5.95;;
6372;SDS011;3219;51.362;7.074;2023-02-28T00:55:15;8.85;;;5.75;;
6372;SDS011;3219;51.362;7.074;2023-02-28T00:57:43;9.25;;;5.78;;
6372;SDS011;3219;51.362;7.074;2023-02-28T01:00:10;9.15;;;5.95;;
6372;SDS011;3219;51.362;7.074;2023-02-28T01:02:38;8.50;;;5.15;;
6372;SDS011;3219;51.362;7.074;2023-02-28T01:05:05;12.25;;;5.82;;
6372;SDS011;3219;51.362;7.074;2023-02-28T01:07:32;8.55;;;4.88;;
6372;SDS011;3219;51.362;7.074;2023-02-28T01:09:59;9.73;;;5.60;;
6372;SDS011;3219;51.362;7.074;2023-02-28T01:12:27;9.15;;;5.35;;
6372;SDS011;3219;51.362;7.074;2023-02-28T01:14:54;10.85;;;5.40;;
6372;SDS011;3219;51.362;7.074;2023-02-28T01:17:20;9.32;;;6.25;;
6372;SDS011;3219;51.362;7.074;2023-02-28T01:19:47;9.65;;;5.15;;
6372;SDS011;3219;51.362;7.074;2023-02-28T01:22:14;9.27;;;5.88;;
6372;SDS011;3219;51.362;7.074;2023-02-28T01:24:40;10.10;;;5.80;;
6372;SDS011;3219;51.362;7.074;2023-02-28T01:27:07;9.25;;;5.15;;
6372;SDS011;3219;51.362;7.074;2023-02-28T01:29:35;11.63;;;5.97;;
6372;SDS011;3219;51.362;7.074;2023-02-28T01:32:02;12.00;;;5.65;;
6372;SDS011;3219;51.362;7.074;2023-02-28T01:34:29;10.48;;;5.57;;
6372;SDS011;3219;51.362;7.074;2023-02-28T01:36:56;10.45;;;5.70;;
6372;SDS011;3219;51.362;7.074;2023-02-28T01:39:23;10.35;;;5.57;;
6372;SDS011;3219;51.362;7.074;2023-02-28T01:41:50;10.85;;;6.20;;
6372;SDS011;3219;51.362;7.074;2023-02-28T01:47:32;8.43;;;6.05;;
6372;SDS011;3219;51.362;7.074;2023-02-28T01:50:03;10.15;;;5.70;;
6372;SDS011;3219;51.362;7.074;2023-02-28T01:52:33;10.13;;;5.33;;
6372;SDS011;3219;51.362;7.074;2023-02-28T01:55:00;10.20;;;6.50;;
6372;SDS011;3219;51.362;7.074;2023-02-28T01:57:31;9.50;;;6.10;;
6372;SDS011;3219;51.362;7.074;2023-02-28T02:00:04;13.50;;;6.47;;
6372;SDS011;3219;51.362;7.074;2023-02-28T02:02:35;10.93;;;7.35;;
6372;SDS011;3219;51.362;7.074;2023-02-28T02:05:04;8.25;;;5.60;;
6372;SDS011;3219;51.362;7.074;2023-02-28T02:07:34;9.63;;;5.85;;
6372;SDS011;3219;51.362;7.074;2023-02-28T02:10:04;9.07;;;6.28;;
6372;SDS011;3219;51.362;7.074;2023-02-28T02:12:41;11.88;;;6.63;;
6372;SDS011;3219;51.362;7.074;2023-02-28T02:15:19;10.43;;;6.35;;
6372;SDS011;3219;51.362;7.074;2023-02-28T02:17:52;9.07;;;5.88;;
6372;SDS011;3219;51.362;7.074;2023-02-28T02:23:28;8.88;;;6.70;;
6372;SDS011;3219;51.362;7.074;2023-02-28T02:35:13;9.85;;;5.38;;
6372;SDS011;3219;51.362;7.074;2023-02-28T02:37:47;7.15;;;4.95;;
6372;SDS011;3219;51.362;7.074;2023-02-28T02:40:18;8.65;;;5.28;;
6372;SDS011;3219;51.362;7.074;2023-02-28T02:42:48;8.15;;;5.18;;
6372;SDS011;3219;51.362;7.074;2023-02-28T02:45:23;10.13;;;5.50;;
6372;SDS011;3219;51.362;7.074;2023-02-28T02:47:52;7.13;;;5.18;;
6372;SDS011;3219;51.362;7.074;2023-02-28T02:50:24;8.23;;;4.85;;
6372;SDS011;3219;51.362;7.074;2023-02-28T02:52:55;10.10;;;6.10;;
6372;SDS011;3219;51.362;7.074;2023-02-28T02:55:26;10.55;;;5.75;;
6372;SDS011;3219;51.362;7.074;2023-02-28T02:57:54;8.20;;;5.10;;
6372;SDS011;3219;51.362;7.074;2023-02-28T03:00:26;11.32;;;4.75;;
6372;SDS011;3219;51.362;7.074;2023-02-28T03:02:56;8.65;;;4.88;;
6372;SDS011;3219;51.362;7.074;2023-02-28T03:05:26;8.88;;;5.10;;
6372;SDS011;3219;51.362;7.074;2023-02-28T03:07:54;8.57;;;5.25;;
6372;SDS011;3219;51.362;7.074;2023-02-28T03:10:28;6.95;;;4.85;;
6372;SDS011;3219;51.362;7.074;2023-02-28T03:13:00;10.20;;;5.10;;
6372;SDS011;3219;51.362;7.074;2023-02-28T03:15:38;9.32;;;5.30;;
6372;SDS011;3219;51.362;7.074;2023-02-28T03:18:20;8.20;;;5.73;;
6372;SDS011;3219;51.362;7.074;2023-02-28T03:20:56;8.27;;;5.18;;
6372;SDS011;3219;51.362;7.074;2023-02-28T03:23:32;6.43;;;5.10;;
6372;SDS011;3219;51.362;7.074;2023-02-28T03:26:11;7.05;;;5.15;;
6372;SDS011;3219;51.362;7.074;2023-02-28T03:28:43;8.50;;;5.20;;
6372;SDS011;3219;51.362;7.074;2023-02-28T03:31:18;7.20;;;4.50;;
6372;SDS011;3219;51.362;7.074;2023-02-28T03:33:50;6.88;;;5.03;;
6372;SDS011;3219;51.362;7.074;2023-02-28T03:36:24;7.47;;;5.00;;
6372;SDS011;3219;51.362;7.074;2023-02-28T03:38:55;9.55;;;5.22;;
6372;SDS011;3219;51.362;7.074;2023-02-28T03:41:27;5.80;;;4.43;;
6372;SDS011;3219;51.362;7.074;2023-02-28T03:43:59;8.27;;;4.53;;
6372;SDS011;3219;51.362;7.074;2023-02-28T03:46:32;10.40;;;5.28;;
6372;SDS011;3219;51.362;7.074;2023-02-28T03:49:03;8.55;;;4.95;;
6372;SDS011;3219;51.362;7.074;2023-02-28T03:51:39;6.80;;;4.80;;
6372;SDS011;3219;51.362;7.074;2023-02-28T03:54:08;8.20;;;5.00;;
6372;SDS011;3219;51.362;7.074;2023-02-28T03:56:39;7.20;;;5.27;;
6372;SDS011;3219;51.362;7.074;2023-02-28T03:59:12;6.90;;;5.15;;
6372;SDS011;3219;51.362;7.074;2023-02-28T04:01:41;11.77;;;5.25;;
6372;SDS011;3219;51.362;7.074;2023-02-28T04:04:11;6.32;;;4.50;;
6372;SDS011;3219;51.362;7.074;2023-02-28T04:06:40;7.55;;;4.50;;
6372;SDS011;3219;51.362;7.074;2023-02-28T04:09:09;9.40;;;5.40;;
6372;SDS011;3219;51.362;7.074;2023-02-28T04:11:38;7.63;;;5.07;;
6372;SDS011;3219;51.362;7.074;2023-02-28T04:14:07;6.78;;;4.72;;
6372;SDS011;3219;51.362;7.074;2023-02-28T04:16:36;7.13;;;4.82;;
6372;SDS011;3219;51.362;7.074;2023-02-28T04:19:05;5.82;;;4.32;;
6372;SDS011;3219;51.362;7.074;2023-02-28T04:21:34;7.32;;;4.35;;
6372;SDS011;3219;51.362;7.074;2023-02-28T04:24:04;7.18;;;4.40;;
6372;SDS011;3219;51.362;7.074;2023-02-28T04:26:32;6.45;;;4.00;;
6372;SDS011;3219;51.362;7.074;2023-02-28T04:29:00;6.22;;;3.92;;
6372;SDS011;3219;51.362;7.074;2023-02-28T04:31:28;7.43;;;4.30;;
6372;SDS011;3219;51.362;7.074;2023-02-28T04:33:54;5.25;;;3.55;;
6372;SDS011;3219;51.362;7.074;2023-02-28T04:36:22;6.82;;;4.05;;
6372;SDS011;3219;51.362;7.074;2023-02-28T04:38:48;7.18;;;3.80;;
6372;SDS011;3219;51.362;7.074;2023-02-28T04:41:17;3.90;;;3.17;;
6372;SDS011;3219;51.362;7.074;2023-02-28T04:43:44;5.72;;;3.55;;
6372;SDS011;3219;51.362;7.074;2023-02-28T04:46:10;6.03;;;3.70;;
6372;SDS011;3219;51.362;7.074;2023-02-28T04:48:38;6.82;;;3.95;;
6372;SDS011;3219;51.362;7.074;2023-02-28T04:51:06;5.32;;;3.70;;
6372;SDS011;3219;51.362;7.074;2023-02-28T04:53:35;5.40;;;3.83;;
6372;SDS011;3219;51.362;7.074;2023-02-28T04:56:03;6.22;;;4.00;;
6372;SDS011;3219;51.362;7.074;2023-02-28T04:58:32;5.78;;;4.10;;
6372;SDS011;3219;51.362;7.074;2023-02-28T05:01:03;5.85;;;4.45;;
6372;SDS011;3219;51.362;7.074;2023-02-28T05:03:37;7.43;;;4.70;;
6372;SDS011;3219;51.362;7.074;2023-02-28T05:06:05;8.00;;;4.50;;
6372;SDS011;3219;51.362;7.074;2023-02-28T05:08:32;7.15;;;5.05;;
6372;SDS011;3219;51.362;7.074;2023-02-28T05:10:59;7.90;;;4.80;;
6372;SDS011;3219;51.362;7.074;2023-02-28T05:13:26;7.78;;;4.22;;
6372;SDS011;3219;51.362;7.074;2023-02-28T05:15:55;11.63;;;5.10;;
6372;SDS011;3219;51.362;7.074;2023-02-28T05:18:22;10.13;;;4.68;;
6372;SDS011;3219;51.362;7.074;2023-02-28T05:20:48;8.65;;;4.57;;
6372;SDS011;3219;51.362;7.074;2023-02-28T05:23:15;9.30;;;4.80;;
6372;SDS011;3219;51.362;7.074;2023-02-28T05:25:45;6.95;;;4.57;;
6372;SDS011;3219;51.362;7.074;2023-02-28T05:28:12;7.15;;;4.18;;
6372;SDS011;3219;51.362;7.074;2023-02-28T05:30:39;7.82;;;4.55;;
6372;SDS011;3219;51.362;7.074;2023-02-28T05:33:10;11.88;;;4.60;;
6372;SDS011;3219;51.362;7.074;2023-02-28T05:35:37;9.75;;;4.60;;
6372;SDS011;3219;51.362;7.074;2023-02-28T05:38:05;7.70;;;4.70;;
6372;SDS011;3219;51.362;7.074;2023-02-28T05:40:31;8.50;;;5.10;;
6372;SDS011;3219;51.362;7.074;2023-02-28T05:42:58;6.68;;;4.60;;
6372;SDS011;3219;51.362;7.074;2023-02-28T05:45:25;6.28;;;4.55;;
6372;SDS011;3219;51.362;7.074;2023-02-28T05:47:53;6.82;;;4.85;;
6372;SDS011;3219;51.362;7.074;2023-02-28T05:50:21;7.53;;;5.20;;
6372;SDS011;3219;51.362;7.074;2023-02-28T05:52:49;6.13;;;4.50;;
6372;SDS011;3219;51.362;7.074;2023-02-28T05:55:16;7.35;;;4.80;;
6372;SDS011;3219;51.362;7.074;2023-02-28T05:57:43;7.22;;;4.53;;
6372;SDS011;3219;51.362;7.074;2023-02-28T06:00:10;6.63;;;3.95;;
6372;SDS011;3219;51.362;7.074;2023-02-28T06:02:40;6.70;;;4.72;;
6372;SDS011;3219;51.362;7.074;2023-02-28T06:05:07;7.90;;;4.20;;
6372;SDS011;3219;51.362;7.074;2023-02-28T06:07:40;5.70;;;4.30;;
6372;SDS011;3219;51.362;7.074;2023-02-28T06:10:07;7.03;;;4.65;;
6372;SDS011;3219;51.362;7.074;2023-02-28T06:12:34;6.20;;;4.25;;
6372;SDS011;3219;51.362;7.074;2023-02-28T06:15:01;6.03;;;4.82;;
6372;SDS011;3219;51.362;7.074;2023-02-28T06:17:28;9.30;;;4.72;;
6372;SDS011;3219;51.362;7.074;2023-02-28T06:19:55;7.30;;;4.72;;
6372;SDS011;3219;51.362;7.074;2023-02-28T06:22:22;7.82;;;4.63;;
6372;SDS011;3219;51.362;7.074;2023-02-28T06:24:50;9.95;;;5.65;;
6372;SDS011;3219;51.362;7.074;2023-02-28T06:27:17;9.52;;;4.75;;
6372;SDS011;3219;51.362;7.074;2023-02-28T06:29:45;9.18;;;4.68;;
6372;SDS011;3219;51.362;7.074;2023-02-28T06:32:12;7.72;;;4.40;;
6372;SDS011;3219;51.362;7.074;2023-02-28T06:34:38;8.93;;;4.65;;
6372;SDS011;3219;51.362;7.074;2023-02-28T06:37:05;11.68;;;4.90;;
6372;SDS011;3219;51.362;7.074;2023-02-28T06:39:32;7.63;;;4.53;;
6372;SDS011;3219;51.362;7.074;2023-02-28T06:42:00;6.65;;;4.15;;
6372;SDS011;3219;51.362;7.074;2023-02-28T06:44:27;6.88;;;4.72;;
6372;SDS011;3219;51.362;7.074;2023-02-28T06:47:00;7.55;;;4.90;;
6372;SDS011;3219;51.362;7.074;2023-02-28T06:49:28;6.53;;;4.38;;
6372;SDS011;3219;51.362;7.074;2023-02-28T06:51:55;6.82;;;4.85;;
6372;SDS011;3219;51.362;7.074;2023-02-28T06:54:22;7.03;;;4.70;;
6372;SDS011;3219;51.362;7.074;2023-02-28T06:56:49;8.07;;;4.75;;
6372;SDS011;3219;51.362;7.074;2023-02-28T06:59:18;5.63;;;4.65;;
6372;SDS011;3219;51.362;7.074;2023-02-28T07:01:45;8.35;;;4.95;;
6372;SDS011;3219;51.362;7.074;2023-02-28T07:04:11;13.50;;;4.85;;
6372;SDS011;3219;51.362;7.074;2023-02-28T07:06:39;6.43;;;4.50;;
6372;SDS011;3219;51.362;7.074;2023-02-28T07:09:06;7.38;;;4.63;;
6372;SDS011;3219;51.362;7.074;2023-02-28T07:11:33;7.75;;;4.60;;
6372;SDS011;3219;51.362;7.074;2023-02-28T07:14:00;7.18;;;4.13;;
6372;SDS011;3219;51.362;7.074;2023-02-28T07:16:28;5.85;;;4.75;;
6372;SDS011;3219;51.362;7.074;2023-02-28T07:18:55;6.00;;;4.75;;
6372;SDS011;3219;51.362;7.074;2023-02-28T07:21:21;6.75;;;4.70;;
6372;SDS011;3219;51.362;7.074;2023-02-28T07:23:48;8.40;;;4.35;;
6372;SDS011;3219;51.362;7.074;2023-02-28T07:26:16;8.65;;;4.82;;
6372;SDS011;3219;51.362;7.074;2023-02-28T07:28:45;6.00;;;4.00;;
6372;SDS011;3219;51.362;7.074;2023-02-28T07:31:13;4.97;;;4.20;;
6372;SDS011;3219;51.362;7.074;2023-02-28T07:33:43;5.63;;;4.18;;
6372;SDS011;3219;51.362;7.074;2023-02-28T07:36:11;5.10;;;4.30;;
6372;SDS011;3219;51.362;7.074;2023-02-28T07:38:40;7.32;;;4.40;;
6372;SDS011;3219;51.362;7.074;2023-02-28T07:41:08;7.13;;;4.47;;
6372;SDS011;3219;51.362;7.074;2023-02-28T07:43:35;6.07;;;4.00;;
6372;SDS011;3219;51.362;7.074;2023-02-28T07:46:02;5.60;;;4.45;;
6372;SDS011;3219;51.362;7.074;2023-02-28T07:48:30;5.55;;;3.53;;
6372;SDS011;3219;51.362;7.074;2023-02-28T07:50:59;7.35;;;4.07;;
6372;SDS011;3219;51.362;7.074;2023-02-28T07:53:26;4.32;;;3.72;;
6372;SDS011;3219;51.362;7.074;2023-02-28T07:55:54;6.65;;;3.80;;
6372;SDS011;3219;51.362;7.074;2023-02-28T07:58:22;5.45;;;3.97;;
6372;SDS011;3219;51.362;7.074;2023-02-28T08:00:49;5.68;;;4.10;;
6372;SDS011;3219;51.362;7.074;2023-02-28T08:03:16;7.30;;;4.50;;
6372;SDS011;3219;51.362;7.074;2023-02-28T08:05:43;7.35;;;4.03;;
6372;SDS011;3219;51.362;7.074;2023-02-28T08:08:11;7.85;;;4.18;;
6372;SDS011;3219;51.362;7.074;2023-02-28T08:10:38;5.60;;;3.83;;
6372;SDS011;3219;51.362;7.074;2023-02-28T08:13:05;5.38;;;3.80;;
6372;SDS011;3219;51.362;7.074;2023-02-28T08:15:32;6.15;;;4.40;;
6372;SDS011;3219;51.362;7.074;2023-02-28T08:17:59;5.97;;;4.25;;
6372;SDS011;3219;51.362;7.074;2023-02-28T08:20:26;6.80;;;4.25;;
6372;SDS011;3219;51.362;7.074;2023-02-28T08:22:53;7.93;;;4.15;;
6372;SDS011;3219;51.362;7.074;2023-02-28T08:25:21;5.75;;;4.15;;
6372;SDS011;3219;51.362;7.074;2023-02-28T08:27:49;5.03;;;3.80;;
6372;SDS011;3219;51.362;7.074;2023-02-28T08:30:16;8.45;;;4.72;;
6372;SDS011;3219;51.362;7.074;2023-02-28T08:32:43;9.48;;;4.57;;
6372;SDS011;3219;51.362;7.074;2023-02-28T08:35:10;7.78;;;4.32;;
6372;SDS011;3219;51.362;7.074;2023-02-28T08:37:37;7.82;;;4.00;;
6372;SDS011;3219;51.362;7.074;2023-02-28T08:40:04;8.23;;;4.88;;
6372;SDS011;3219;51.362;7.074;2023-02-28T08:42:33;7.63;;;4.18;;
6372;SDS011;3219;51.362;7.074;2023-02-28T08:45:00;5.78;;;4.07;;
6372;SDS011;3219;51.362;7.074;2023-02-28T08:47:27;5.07;;;3.47;;
6372;SDS011;3219;51.362;7.074;2023-02-28T08:49:53;9.27;;;4.30;;
6372;SDS011;3219;51.362;7.074;2023-02-28T08:52:20;6.07;;;3.95;;
6372;SDS011;3219;51.362;7.074;2023-02-28T08:54:47;6.57;;;3.83;;
6372;SDS011;3219;51.362;7.074;2023-02-28T08:57:14;9.20;;;4.28;;
6372;SDS011;3219;51.362;7.074;2023-02-28T08:59:42;13.73;;;4.43;;
6372;SDS011;3219;51.362;7.074;2023-02-28T09:02:09;10.05;;;3.90;;
6372;SDS011;3219;51.362;7.074;2023-02-28T09:04:38;4.82;;;3.97;;
6372;SDS011;3219;51.362;7.074;2023-02-28T09:07:04;6.47;;;4.05;;
6372;SDS011;3219;51.362;7.074;2023-02-28T09:09:31;6.93;;;3.88;;
6372;SDS011;3219;51.362;7.074;2023-02-28T09:11:58;7.82;;;3.90;;
6372;SDS011;3219;51.362;7.074;2023-02-28T09:14:25;7.22;;;3.72;;
6372;SDS011;3219;51.362;7.074;2023-02-28T09:16:53;8.15;;;4.18;;
6372;SDS011;3219;51.362;7.074;2023-02-28T09:19:20;7.22;;;4.10;;
6372;SDS011;3219;51.362;7.074;2023-02-28T09:21:47;13.02;;;4.57;;
6372;SDS011;3219;51.362;7.074;2023-02-28T09:24:14;7.72;;;3.60;;
6372;SDS011;3219;51.362;7.074;2023-02-28T09:26:40;6.15;;;3.80;;
6372;SDS011;3219;51.362;7.074;2023-02-28T09:29:07;6.80;;;3.90;;
6372;SDS011;3219;51.362;7.074;2023-02-28T09:31:34;7.15;;;4.30;;
6372;SDS011;3219;51.362;7.074;2023-02-28T09:34:03;6.90;;;3.88;;
6372;SDS011;3219;51.362;7.074;2023-02-28T09:36:30;8.95;;;4.03;;
6372;SDS011;3219;51.362;7.074;2023-02-28T09:38:58;5.65;;;3.60;;
6372;SDS011;3219;51.362;7.074;2023-02-28T09:41:25;5.25;;;3.88;;
6372;SDS011;3219;51.362;7.074;2023-02-28T09:43:56;5.35;;;3.90;;
6372;SDS011;3219;51.362;7.074;2023-02-28T09:46:27;6.45;;;3.90;;
6372;SDS011;3219;51.362;7.074;2023-02-28T09:48:57;9.95;;;4.13;;
6372;SDS011;3219;51.362;7.074;2023-02-28T09:51:34;5.07;;;3.95;;
6372;SDS011;3219;51.362;7.074;2023-02-28T09:54:11;3.72;;;3.22;;
6372;SDS011;3219;51.362;7.074;2023-02-28T09:56:44;6.65;;;3.38;;
6372;SDS011;3219;51.362;7.074;2023-02-28T09:59:16;3.80;;;3.00;;
6372;SDS011;3219;51.362;7.074;2023-02-28T10:01:56;6.38;;;3.75;;
6372;SDS011;3219;51.362;7.074;2023-02-28T10:04:34;5.90;;;3.80;;
6372;SDS011;3219;51.362;7.074;2023-02-28T10:07:12;6.25;;;3.42;;
6372;SDS011;3219;51.362;7.074;2023-02-28T10:09:46;6.95;;;3.63;;
6372;SDS011;3219;51.362;7.074;2023-02-28T10:12:17;4.13;;;2.83;;
6372;SDS011;3219;51.362;7.074;2023-02-28T10:14:46;5.32;;;2.88;;
6372;SDS011;3219;51.362;7.074;2023-02-28T10:17:16;7.63;;;3.00;;
6372;SDS011;3219;51.362;7.074;2023-02-28T10:19:47;4.38;;;2.90;;
6372;SDS011;3219;51.362;7.074;2023-02-28T10:22:23;6.80;;;3.33;;
6372;SDS011;3219;51.362;7.074;2023-02-28T10:24:54;5.25;;;2.90;;
6372;SDS011;3219;51.362;7.074;2023-02-28T10:27:25;5.60;;;3.30;;
6372;SDS011;3219;51.362;7.074;2023-02-28T10:29:56;4.10;;;2.97;;
6372;SDS011;3219;51.362;7.074;2023-02-28T10:32:26;5.93;;;2.70;;
6372;SDS011;3219;51.362;7.074;2023-02-28T10:34:55;2.80;;;2.30;;
6372;SDS011;3219;51.362;7.074;2023-02-28T10:37:26;3.53;;;2.50;;
6372;SDS011;3219;51.362;7.074;2023-02-28T10:39:53;4.15;;;2.53;;
6372;SDS011;3219;51.362;7.074;2023-02-28T10:42:22;5.03;;;2.60;;
6372;SDS011;3219;51.362;7.074;2023-02-28T10:45:04;5.97;;;2.42;;
6372;SDS011;3219;51.362;7.074;2023-02-28T10:47:36;4.93;;;2.55;;
6372;SDS011;3219;51.362;7.074;2023-02-28T10:50:26;4.13;;;2.58;;
6372;SDS011;3219;51.362;7.074;2023-02-28T10:53:07;5.60;;;2.97;;
6372;SDS011;3219;51.362;7.074;2023-02-28T10:55:41;4.30;;;2.28;;
6372;SDS011;3219;51.362;7.074;2023-02-28T10:58:20;3.00;;;2.20;;
6372;SDS011;3219;51.362;7.074;2023-02-28T11:00:48;5.22;;;2.60;;
6372;SDS011;3219;51.362;7.074;2023-02-28T11:03:23;3.67;;;2.65;;
6372;SDS011;3219;51.362;7.074;2023-02-28T11:05:54;4.03;;;2.30;;
6372;SDS011;3219;51.362;7.074;2023-02-28T11:08:22;2.80;;;2.17;;
6372;SDS011;3219;51.362;7.074;2023-02-28T11:10:53;3.05;;;2.10;;
6372;SDS011;3219;51.362;7.074;2023-02-28T11:13:24;3.38;;;2.22;;
6372;SDS011;3219;51.362;7.074;2023-02-28T11:15:54;3.17;;;2.30;;
6372;SDS011;3219;51.362;7.074;2023-02-28T11:18:23;5.22;;;2.53;;
6372;SDS011;3219;51.362;7.074;2023-02-28T11:20:53;4.63;;;2.22;;
6372;SDS011;3219;51.362;7.074;2023-02-28T11:23:24;3.20;;;2.30;;
6372;SDS011;3219;51.362;7.074;2023-02-28T11:25:54;5.13;;;2.50;;
6372;SDS011;3219;51.362;7.074;2023-02-28T11:28:25;3.90;;;2.28;;
6372;SDS011;3219;51.362;7.074;2023-02-28T11:31:01;3.08;;;2.60;;
6372;SDS011;3219;51.362;7.074;2023-02-28T11:33:32;4.85;;;2.90;;
6372;SDS011;3219;51.362;7.074;2023-02-28T11:36:10;2.97;;;2.35;;
6372;SDS011;3219;51.362;7.074;2023-02-28T11:38:39;4.35;;;2.90;;
6372;SDS011;3219;51.362;7.074;2023-02-28T11:44:11;3.30;;;2.00;;
6372;SDS011;3219;51.362;7.074;2023-02-28T11:47:00;3.65;;;2.38;;
6372;SDS011;3219;51.362;7.074;2023-02-28T11:49:35;4.97;;;2.72;;
6372;SDS011;3219;51.362;7.074;2023-02-28T11:52:14;7.20;;;2.80;;
6372;SDS011;3219;51.362;7.074;2023-02-28T11:54:52;3.65;;;2.30;;
6372;SDS011;3219;51.362;7.074;2023-02-28T11:57:38;5.68;;;2.90;;
6372;SDS011;3219;51.362;7.074;2023-02-28T12:00:28;2.88;;;2.40;;
6372;SDS011;3219;51.362;7.074;2023-02-28T12:03:10;6.78;;;2.42;;
6372;SDS011;3219;51.362;7.074;2023-02-28T12:05:49;3.08;;;2.20;;
6372;SDS011;3219;51.362;7.074;2023-02-28T12:08:30;2.95;;;2.22;;
6372;SDS011;3219;51.362;7.074;2023-02-28T12:11:13;2.97;;;2.28;;
6372;SDS011;3219;51.362;7.074;2023-02-28T12:13:53;5.82;;;2.67;;
6372;SDS011;3219;51.362;7.074;2023-02-28T12:16:34;4.15;;;2.60;;
6372;SDS011;3219;51.362;7.074;2023-02-28T12:19:16;4.32;;;2.92;;
6372;SDS011;3219;51.362;7.074;2023-02-28T12:21:49;6.25;;;2.58;;
6372;SDS011;3219;51.362;7.074;2023-02-28T12:27:28;3.33;;;2.50;;
6372;SDS011;3219;51.362;7.074;2023-02-28T12:29:58;3.63;;;2.67;;
6372;SDS011;3219;51.362;7.074;2023-02-28T12:32:30;7.28;;;2.22;;
6372;SDS011;3219;51.362;7.074;2023-02-28T12:35:01;3.75;;;2.30;;
6372;SDS011;3219;51.362;7.074;2023-02-28T12:37:31;3.65;;;2.53;;
6372;SDS011;3219;51.362;7.074;2023-02-28T12:40:04;5.90;;;3.00;;
6372;SDS011;3219;51.362;7.074;2023-02-28T12:42:39;3.88;;;2.50;;
6372;SDS011;3219;51.362;7.074;2023-02-28T12:45:12;3.50;;;2.50;;
6372;SDS011;3219;51.362;7.074;2023-02-28T12:47:44;6.55;;;2.53;;
6372;SDS011;3219;51.362;7.074;2023-02-28T12:50:12;4.22;;;2.83;;
6372;SDS011;3219;51.362;7.074;2023-02-28T12:52:41;3.05;;;2.72;;
6372;SDS011;3219;51.362;7.074;2023-02-28T12:55:15;4.20;;;2.90;;
6372;SDS011;3219;51.362;7.074;2023-02-28T12:57:52;3.03;;;2.42;;
6372;SDS011;3219;51.362;7.074;2023-02-28T13:00:25;5.80;;;2.90;;
6372;SDS011;3219;51.362;7.074;2023-02-28T13:03:07;4.55;;;3.38;;
6372;SDS011;3219;51.362;7.074;2023-02-28T13:06:03;4.38;;;2.92;;
6372;SDS011;3219;51.362;7.074;2023-02-28T13:08:43;3.75;;;2.92;;
6372;SDS011;3219;51.362;7.074;2023-02-28T13:11:26;4.65;;;3.08;;
6372;SDS011;3219;51.362;7.074;2023-02-28T13:14:00;3.60;;;2.40;;
6372;SDS011;3219;51.362;7.074;2023-02-28T13:19:17;6.13;;;2.95;;
6372;SDS011;3219;51.362;7.074;2023-02-28T13:21:46;4.78;;;2.95;;
6372;SDS011;3219;51.362;7.074;2023-02-28T13:24:35;3.47;;;2.72;;
6372;SDS011;3219;51.362;7.074;2023-02-28T13:30:01;4.07;;;2.95;;
6372;SDS011;3219;51.362;7.074;2023-02-28T13:32:43;4.65;;;2.38;;
6372;SDS011;3219;51.362;7.074;2023-02-28T13:35:13;5.80;;;2.80;;
6372;SDS011;3219;51.362;7.074;2023-02-28T13:38:09;4.18;;;2.90;;
6372;SDS011;3219;51.362;7.074;2023-02-28T13:44:05;3.75;;;2.67;;
6372;SDS011;3219;51.362;7.074;2023-02-28T13:46:35;4.93;;;2.70;;
6372;SDS011;3219;51.362;7.074;2023-02-28T13:49:18;3.42;;;2.83;;
6372;SDS011;3219;51.362;7.074;2023-02-28T13:51:46;8.38;;;2.97;;
6372;SDS011;3219;51.362;7.074;2023-02-28T13:54:19;4.60;;;3.03;;
6372;SDS011;3219;51.362;7.074;2023-02-28T13:56:57;6.88;;;3.10;;
6372;SDS011;3219;51.362;7.074;2023-02-28T13:59:33;7.68;;;3.40;;
6372;SDS011;3219;51.362;7.074;2023-02-28T14:02:25;4.15;;;2.72;;
6372;SDS011;3219;51.362;7.074;2023-02-28T14:05:13;4.18;;;2.83;;
6372;SDS011;3219;51.362;7.074;2023-02-28T14:07:43;5.25;;;3.55;;
6372;SDS011;3219;51.362;7.074;2023-02-28T14:10:20;5.10;;;3.05;;
6372;SDS011;3219;51.362;7.074;2023-02-28T14:13:01;4.15;;;3.17;;
6372;SDS011;3219;51.362;7.074;2023-02-28T14:15:46;3.38;;;2.72;;
6372;SDS011;3219;51.362;7.074;2023-02-28T14:18:18;4.10;;;2.80;;
6372;SDS011;3219;51.362;7.074;2023-02-28T14:20:48;6.43;;;3.30;;
6372;SDS011;3219;51.362;7.074;2023-02-28T14:23:21;6.80;;;3.03;;
6372;SDS011;3219;51.362;7.074;2023-02-28T14:26:07;3.85;;;2.95;;
6372;SDS011;3219;51.362;7.074;2023-02-28T14:28:47;3.75;;;2.72;;
6372;SDS011;3219;51.362;7.074;2023-02-28T14:31:28;5.32;;;3.22;;
6372;SDS011;3219;51.362;7.074;2023-02-28T14:34:13;6.50;;;3.30;;
6372;SDS011;3219;51.362;7.074;2023-02-28T14:36:50;6.57;;;3.40;;
6372;SDS011;3219;51.362;7.074;2023-02-28T14:39:20;4.22;;;3.15;;
6372;SDS011;3219;51.362;7.074;2023-02-28T14:41:48;8.27;;;3.65;;
6372;SDS011;3219;51.362;7.074;2023-02-28T14:44:16;4.25;;;3.13;;
6372;SDS011;3219;51.362;7.074;2023-02-28T14:46:45;4.47;;;3.05;;
6372;SDS011;3219;51.362;7.074;2023-02-28T14:49:17;3.67;;;2.92;;
6372;SDS011;3219;51.362;7.074;2023-02-28T14:52:00;4.40;;;3.10;;
6372;SDS011;3219;51.362;7.074;2023-02-28T14:54:29;4.88;;;2.95;;
6372;SDS011;3219;51.362;7.074;2023-02-28T14:56:56;3.28;;;2.72;;
6372;SDS011;3219;51.362;7.074;2023-02-28T14:59:24;5.95;;;3.10;;
6372;SDS011;3219;51.362;7.074;2023-02-28T15:01:55;6.28;;;2.90;;
6372;SDS011;3219;51.362;7.074;2023-02-28T15:04:43;4.63;;;3.25;;
6372;SDS011;3219;51.362;7.074;2023-02-28T15:07:19;5.80;;;3.38;;
6372;SDS011;3219;51.362;7.074;2023-02-28T15:10:06;5.25;;;3.17;;
6372;SDS011;3219;51.362;7.074;2023-02-28T15:12:39;4.78;;;3.58;;
6372;SDS011;3219;51.362;7.074;2023-02-28T15:15:14;6.50;;;3.40;;
6372;SDS011;3219;51.362;7.074;2023-02-28T15:17:42;4.57;;;3.35;;
6372;SDS011;3219;51.362;7.074;2023-02-28T15:20:13;4.32;;;2.80;;
6372;SDS011;3219;51.362;7.074;2023-02-28T15:22:42;4.22;;;3.50;;
6372;SDS011;3219;51.362;7.074;2023-02-28T15:25:09;6.05;;;3.88;;
6372;SDS011;3219;51.362;7.074;2023-02-28T15:27:39;5.50;;;3.47;;
6372;SDS011;3219;51.362;7.074;2023-02-28T15:30:14;7.03;;;3.80;;
6372;SDS011;3219;51.362;7.074;2023-02-28T15:32:42;5.28;;;3.10;;
6372;SDS011;3219;51.362;7.074;2023-02-28T15:35:24;4.07;;;3.53;;
6372;SDS011;3219;51.362;7.074;2023-02-28T15:37:55;4.72;;;3.67;;
6372;SDS011;3219;51.362;7.074;2023-02-28T15:40:25;6.10;;;3.28;;
6372;SDS011;3219;51.362;7.074;2023-02-28T15:42:58;10.23;;;4.30;;
6372;SDS011;3219;51.362;7.074;2023-02-28T15:45:26;4.30;;;3.70;;
6372;SDS011;3219;51.362;7.074;2023-02-28T15:47:55;7.47;;;3.67;;
6372;SDS011;3219;51.362;7.074;2023-02-28T15:50:23;5.30;;;3.58;;
6372;SDS011;3219;51.362;7.074;2023-02-28T15:52:50;4.85;;;3.85;;
6372;SDS011;3219;51.362;7.074;2023-02-28T15:55:18;5.03;;;3.47;;
6372;SDS011;3219;51.362;7.074;2023-02-28T15:57:47;4.68;;;3.45;;
6372;SDS011;3219;51.362;7.074;2023-02-28T16:00:18;4.55;;;3.55;;
6372;SDS011;3219;51.362;7.074;2023-02-28T16:02:46;5.38;;;3.70;;
6372;SDS011;3219;51.362;7.074;2023-02-28T16:05:18;5.47;;;3.47;;
6372;SDS011;3219;51.362;7.074;2023-02-28T16:07:54;4.72;;;3.53;;